createdAt,value
2022-12-08T00:01:27.239Z,5.25
2022-12-08T00:03:54.169Z,5.25
2022-12-08T00:06:42.982Z,3.92
2022-12-08T00:09:28.475Z,3.53
2022-12-08T00:12:03.987Z,4.18
2022-12-08T00:14:36.163Z,3.80
2022-12-08T00:17:03.751Z,7.03
2022-12-08T00:19:31.257Z,4.85
2022-12-08T00:21:58.977Z,4.43
2022-12-08T00:24:33.028Z,2.20
2022-12-08T00:26:59.386Z,4.85
2022-12-08T00:29:25.828Z,8.38
2022-12-08T00:31:52.792Z,5.60
2022-12-08T00:34:19.800Z,3.42
2022-12-08T00:36:46.727Z,3.30
2022-12-08T00:39:15.149Z,4.30
2022-12-08T00:41:41.821Z,4.38
2022-12-08T00:44:08.599Z,2.15
2022-12-08T00:46:35.272Z,6.68
2022-12-08T00:49:05.734Z,4.30
2022-12-08T00:51:32.537Z,3.58
2022-12-08T00:53:58.979Z,5.40
2022-12-08T00:56:26.004Z,6.00
2022-12-08T00:58:52.776Z,4.25
2022-12-08T01:01:19.086Z,3.63
2022-12-08T01:03:45.517Z,4.25
2022-12-08T01:06:12.437Z,4.45
2022-12-08T01:08:39.764Z,3.78
2022-12-08T01:11:07.616Z,2.90
2022-12-08T01:13:34.380Z,3.63
2022-12-08T01:16:00.730Z,10.15
2022-12-08T01:18:27.876Z,4.68
2022-12-08T01:20:54.643Z,7.80
2022-12-08T01:23:21.315Z,11.30
2022-12-08T01:25:47.673Z,10.73
2022-12-08T01:28:13.943Z,7.40
2022-12-08T01:30:40.682Z,9.25
2022-12-08T01:33:07.095Z,9.60
2022-12-08T01:35:34.000Z,12.90
2022-12-08T01:38:00.387Z,9.52
2022-12-08T01:40:26.819Z,9.52
2022-12-08T01:42:53.104Z,7.95
2022-12-08T01:45:26.810Z,10.52
2022-12-08T01:47:58.623Z,8.02
2022-12-08T01:50:25.636Z,7.65
2022-12-08T01:52:57.173Z,8.23
2022-12-08T01:55:29.462Z,6.47
2022-12-08T01:58:00.490Z,7.15
2022-12-08T02:00:26.869Z,6.03
2022-12-08T02:02:59.191Z,5.00
2022-12-08T02:05:31.055Z,4.65
2022-12-08T02:07:58.645Z,5.85
2022-12-08T02:10:29.348Z,2.92
2022-12-08T02:12:58.290Z,3.30
2022-12-08T02:15:37.011Z,2.63
2022-12-08T02:18:40.856Z,4.63
2022-12-08T02:21:23.527Z,3.90
2022-12-08T02:24:23.213Z,2.42
2022-12-08T02:27:12.743Z,3.67
2022-12-08T02:29:57.371Z,5.35
2022-12-08T02:32:58.121Z,3.30
2022-12-08T02:35:33.559Z,3.63
2022-12-08T02:38:28.909Z,4.05
2022-12-08T02:41:25.876Z,3.90
2022-12-08T02:44:29.805Z,3.13
2022-12-08T02:47:01.085Z,2.92
2022-12-08T02:49:29.510Z,3.53
2022-12-08T02:52:27.793Z,5.28
2022-12-08T02:55:01.827Z,5.03
2022-12-08T02:57:50.257Z,4.03
2022-12-08T03:00:20.578Z,4.00
2022-12-08T03:03:08.939Z,4.25
2022-12-08T03:05:51.189Z,3.53
2022-12-08T03:08:51.136Z,5.88
2022-12-08T03:11:28.498Z,5.57
2022-12-08T03:13:59.611Z,4.60
2022-12-08T03:16:35.239Z,3.38
2022-12-08T03:19:13.501Z,4.13
2022-12-08T03:21:43.275Z,7.28
2022-12-08T03:24:10.950Z,8.15
2022-12-08T03:26:51.579Z,9.05
2022-12-08T03:29:18.447Z,11.68
2022-12-08T03:31:53.062Z,6.18
2022-12-08T03:34:21.455Z,4.82
2022-12-08T03:36:47.915Z,5.15
2022-12-08T03:39:14.428Z,5.63
2022-12-08T03:41:40.755Z,8.02
2022-12-08T03:44:07.316Z,4.85
2022-12-08T03:46:33.657Z,5.50
2022-12-08T03:49:00.013Z,5.10
2022-12-08T03:51:26.427Z,4.35
2022-12-08T03:53:53.004Z,6.00
2022-12-08T03:56:19.310Z,5.50
2022-12-08T03:58:45.683Z,6.05
2022-12-08T04:01:12.382Z,6.13
2022-12-08T04:03:38.787Z,5.22
2022-12-08T04:06:05.656Z,7.03
2022-12-08T04:08:31.916Z,4.60
2022-12-08T04:10:58.421Z,5.55
2022-12-08T04:13:24.740Z,6.53
2022-12-08T04:15:51.261Z,6.25
2022-12-08T04:18:18.102Z,4.05
2022-12-08T04:20:45.467Z,4.03
2022-12-08T04:23:12.350Z,5.35
2022-12-08T04:25:39.059Z,5.60
2022-12-08T04:28:05.925Z,6.20
2022-12-08T04:30:33.398Z,5.45
2022-12-08T04:32:59.820Z,5.40
2022-12-08T04:35:26.193Z,7.72
2022-12-08T04:37:52.586Z,4.97
2022-12-08T04:40:19.027Z,5.47
2022-12-08T04:42:45.485Z,5.70
2022-12-08T04:45:11.974Z,4.40
2022-12-08T04:47:38.443Z,4.32
2022-12-08T04:50:06.624Z,3.95
2022-12-08T04:52:33.123Z,5.82
2022-12-08T04:54:59.502Z,5.75
2022-12-08T04:57:25.939Z,4.15
2022-12-08T04:59:52.972Z,4.60
2022-12-08T05:02:19.744Z,3.95
2022-12-08T05:04:46.374Z,3.38
2022-12-08T05:07:12.989Z,3.13
2022-12-08T05:09:39.301Z,3.13
2022-12-08T05:12:05.790Z,5.45
2022-12-08T05:14:32.139Z,6.53
2022-12-08T05:16:58.534Z,5.72
2022-12-08T05:19:25.949Z,2.78
2022-12-08T05:21:52.325Z,2.13
2022-12-08T05:24:18.692Z,3.30
2022-12-08T05:26:45.035Z,2.20
2022-12-08T05:29:11.327Z,3.00
2022-12-08T05:31:37.799Z,2.70
2022-12-08T05:34:04.224Z,2.67
2022-12-08T05:36:30.574Z,3.55
2022-12-08T05:38:57.664Z,1.70
2022-12-08T05:41:24.448Z,4.65
2022-12-08T05:43:50.828Z,5.03
2022-12-08T05:46:17.503Z,3.97
2022-12-08T05:48:44.001Z,3.08
2022-12-08T05:51:19.888Z,3.63
2022-12-08T05:53:47.138Z,2.65
2022-12-08T05:56:13.509Z,1.50
2022-12-08T05:58:39.961Z,4.80
2022-12-08T06:01:06.362Z,1.65
2022-12-08T06:03:33.184Z,2.75
2022-12-08T06:05:59.626Z,2.28
2022-12-08T06:08:25.990Z,3.28
2022-12-08T06:10:52.408Z,2.70
2022-12-08T06:13:18.734Z,3.08
2022-12-08T06:15:45.034Z,2.08
2022-12-08T06:18:11.381Z,2.20
2022-12-08T06:20:37.790Z,2.35
2022-12-08T06:23:04.085Z,1.48
2022-12-08T06:25:30.583Z,1.25
2022-12-08T06:27:56.897Z,1.52
2022-12-08T06:30:23.182Z,1.98
2022-12-08T06:32:49.602Z,1.17
2022-12-08T06:35:16.160Z,1.50
2022-12-08T06:37:42.633Z,2.47
2022-12-08T06:40:09.490Z,1.13
2022-12-08T06:42:35.801Z,1.30
2022-12-08T06:45:02.183Z,2.75
2022-12-08T06:47:28.496Z,3.00
2022-12-08T06:49:54.770Z,3.42
2022-12-08T06:52:21.655Z,4.07
2022-12-08T06:54:47.949Z,4.70
2022-12-08T06:57:14.282Z,5.72
2022-12-08T06:59:40.597Z,4.68
2022-12-08T07:02:07.094Z,4.53
2022-12-08T07:04:33.485Z,4.53
2022-12-08T07:06:59.862Z,4.05
2022-12-08T07:09:26.183Z,2.88
2022-12-08T07:11:52.520Z,3.75
2022-12-08T07:14:18.948Z,2.60
2022-12-08T07:16:45.295Z,1.65
2022-12-08T07:19:11.723Z,4.90
2022-12-08T07:21:38.063Z,1.63
2022-12-08T07:24:04.733Z,3.22
2022-12-08T07:26:31.024Z,3.17
2022-12-08T07:28:57.437Z,2.53
2022-12-08T07:31:25.310Z,2.47
2022-12-08T07:33:52.535Z,3.05
2022-12-08T07:36:18.997Z,2.08
2022-12-08T07:38:45.522Z,2.97
2022-12-08T07:41:16.820Z,1.67
2022-12-08T07:43:43.453Z,3.03
2022-12-08T07:46:14.483Z,4.80
2022-12-08T07:48:41.082Z,3.00
2022-12-08T07:51:08.062Z,3.28
2022-12-08T07:53:35.127Z,2.15
2022-12-08T07:56:05.292Z,1.50
2022-12-08T07:58:31.566Z,1.25
2022-12-08T08:00:58.084Z,1.65
2022-12-08T08:03:24.632Z,2.17
2022-12-08T08:05:51.014Z,1.23
2022-12-08T08:08:18.001Z,1.58
2022-12-08T08:10:45.535Z,2.13
2022-12-08T08:13:12.444Z,1.42
2022-12-08T08:15:39.864Z,1.17
2022-12-08T08:18:07.488Z,1.48
2022-12-08T08:20:33.781Z,1.27
2022-12-08T08:23:00.109Z,0.90
2022-12-08T08:25:26.517Z,1.10
2022-12-08T08:27:54.806Z,1.35
2022-12-08T08:30:21.450Z,1.67
2022-12-08T08:32:49.380Z,1.25
2022-12-08T08:35:15.886Z,0.95
2022-12-08T08:37:48.353Z,1.33
2022-12-08T08:40:15.257Z,3.60
2022-12-08T08:42:41.593Z,1.70
2022-12-08T08:45:08.079Z,2.40
2022-12-08T08:47:34.678Z,3.42
2022-12-08T08:50:00.973Z,1.00
2022-12-08T08:52:27.249Z,2.45
2022-12-08T08:54:53.576Z,1.63
2022-12-08T08:57:25.293Z,2.38
2022-12-08T08:59:52.539Z,2.97
2022-12-08T09:02:19.746Z,2.08
2022-12-08T09:04:46.367Z,1.77
2022-12-08T09:07:12.984Z,1.20
2022-12-08T09:09:39.850Z,3.30
2022-12-08T09:12:06.548Z,3.53
2022-12-08T09:14:32.850Z,2.25
2022-12-08T09:16:59.247Z,1.73
2022-12-08T09:19:25.551Z,3.10
2022-12-08T09:21:51.946Z,2.05
2022-12-08T09:24:18.222Z,1.27
2022-12-08T09:26:44.987Z,2.35
2022-12-08T09:29:11.919Z,2.13
2022-12-08T09:31:38.320Z,3.42
2022-12-08T09:34:05.071Z,1.42
2022-12-08T09:36:31.889Z,1.48
2022-12-08T09:38:58.444Z,2.33
2022-12-08T09:41:49.118Z,1.20
2022-12-08T09:44:33.608Z,1.33
2022-12-08T09:47:03.296Z,1.55
2022-12-08T09:49:39.499Z,1.58
2022-12-08T09:52:13.965Z,1.88
2022-12-08T09:54:40.515Z,1.30
2022-12-08T09:57:13.533Z,1.10
2022-12-08T09:59:40.308Z,2.58
2022-12-08T10:02:26.255Z,1.13
2022-12-08T10:04:56.235Z,1.63
2022-12-08T10:08:08.572Z,2.20
2022-12-08T10:10:50.230Z,1.13
2022-12-08T10:13:41.346Z,2.38
2022-12-08T10:16:42.881Z,2.10
2022-12-08T10:19:24.861Z,3.30
2022-12-08T10:21:53.066Z,1.67
2022-12-08T10:24:31.890Z,3.85
2022-12-08T10:26:58.879Z,2.47
2022-12-08T10:29:25.269Z,1.45
2022-12-08T10:31:51.696Z,0.88
2022-12-08T10:34:20.977Z,1.60
2022-12-08T10:36:58.723Z,1.25
2022-12-08T10:39:32.316Z,1.52
2022-12-08T10:42:14.004Z,2.72
2022-12-08T10:45:08.293Z,1.45
2022-12-08T10:47:44.581Z,1.90
2022-12-08T10:50:31.852Z,2.25
2022-12-08T10:53:18.416Z,1.27
2022-12-08T10:55:52.205Z,1.23
2022-12-08T10:58:34.976Z,2.80
2022-12-08T11:01:22.189Z,1.70
2022-12-08T11:03:59.817Z,6.03
2022-12-08T11:06:29.894Z,1.70
2022-12-08T11:08:59.674Z,3.20
2022-12-08T11:11:45.455Z,2.25
2022-12-08T11:14:24.089Z,3.92
2022-12-08T11:16:52.595Z,3.22
2022-12-08T11:19:20.995Z,3.67
2022-12-08T11:21:47.906Z,3.75
2022-12-08T11:24:15.196Z,3.30
2022-12-08T11:26:47.250Z,3.47
2022-12-08T11:29:13.712Z,4.78
2022-12-08T11:31:47.188Z,4.93
2022-12-08T11:34:30.296Z,2.95
2022-12-08T11:36:57.852Z,3.00
2022-12-08T11:39:28.219Z,4.78
2022-12-08T11:41:57.098Z,4.20
2022-12-08T11:44:46.431Z,3.58
2022-12-08T11:47:20.860Z,2.40
2022-12-08T11:49:51.045Z,3.08
2022-12-08T11:52:34.472Z,3.15
2022-12-08T11:55:09.572Z,3.97
2022-12-08T11:57:36.002Z,3.22
2022-12-08T12:00:03.223Z,6.20
2022-12-08T12:02:34.813Z,5.18
2022-12-08T12:05:09.066Z,5.75
2022-12-08T12:08:13.227Z,8.48
2022-12-08T12:10:52.807Z,6.05
2022-12-08T12:13:53.126Z,12.35
2022-12-08T12:16:19.523Z,3.78
2022-12-08T12:18:52.076Z,4.75
2022-12-08T12:21:20.537Z,3.67
2022-12-08T12:23:58.808Z,5.80
2022-12-08T12:26:28.480Z,3.90
2022-12-08T12:29:02.412Z,3.50
2022-12-08T12:31:37.864Z,3.08
2022-12-08T12:34:15.162Z,2.95
2022-12-08T12:36:49.105Z,3.40
2022-12-08T12:39:18.444Z,6.03
2022-12-08T12:42:05.317Z,2.50
2022-12-08T12:44:34.386Z,2.80
2022-12-08T12:47:03.677Z,4.35
2022-12-08T12:49:39.389Z,4.40
2022-12-08T12:52:17.969Z,3.15
2022-12-08T12:54:50.491Z,2.70
2022-12-08T12:57:19.692Z,2.80
2022-12-08T12:59:55.662Z,4.55
2022-12-08T13:02:31.436Z,4.72
2022-12-08T13:05:08.984Z,3.65
2022-12-08T13:08:03.384Z,4.13
2022-12-08T13:10:33.476Z,2.97
2022-12-08T13:13:11.784Z,3.47
2022-12-08T13:16:17.073Z,5.55
2022-12-08T13:18:50.817Z,3.50
2022-12-08T13:21:21.042Z,3.78
2022-12-08T13:24:09.940Z,3.78
2022-12-08T13:26:46.297Z,4.43
2022-12-08T13:29:25.988Z,3.35
2022-12-08T13:31:54.701Z,3.25
2022-12-08T13:34:35.985Z,3.08
2022-12-08T13:37:11.563Z,4.45
2022-12-08T13:39:47.534Z,4.00
2022-12-08T13:42:13.827Z,3.53
2022-12-08T13:48:23.858Z,5.75
2022-12-08T13:57:32.835Z,2.70
2022-12-08T14:00:14.461Z,8.02
2022-12-08T14:02:47.458Z,5.15
2022-12-08T14:05:19.099Z,5.53
2022-12-08T14:07:49.444Z,5.25
2022-12-08T14:10:28.134Z,11.00
2022-12-08T14:12:59.496Z,11.00
2022-12-08T14:15:26.375Z,8.15
2022-12-08T14:17:55.797Z,5.65
2022-12-08T14:20:28.337Z,8.05
2022-12-08T14:22:55.095Z,6.90
2022-12-08T14:25:23.106Z,12.43
2022-12-08T14:27:50.188Z,12.07
2022-12-08T14:30:24.802Z,9.32
2022-12-08T14:32:55.456Z,5.80
2022-12-08T14:35:28.348Z,6.28
2022-12-08T14:37:58.336Z,6.32
2022-12-08T14:40:30.362Z,4.78
2022-12-08T14:43:08.916Z,4.82
2022-12-08T14:45:35.260Z,5.38
2022-12-08T14:48:26.720Z,5.05
2022-12-08T14:51:20.574Z,3.70
2022-12-08T14:54:12.378Z,3.83
2022-12-08T14:56:52.798Z,1.85
2022-12-08T14:59:29.035Z,4.88
2022-12-08T15:02:15.610Z,4.78
2022-12-08T15:04:43.555Z,2.80
2022-12-08T15:07:15.801Z,3.10
2022-12-08T15:09:45.026Z,3.97
2022-12-08T15:12:14.338Z,3.60
2022-12-08T15:14:42.402Z,4.07
2022-12-08T15:17:36.661Z,5.70
2022-12-08T15:20:04.711Z,5.93
2022-12-08T15:22:31.521Z,4.40
2022-12-08T15:24:58.157Z,2.88
2022-12-08T15:27:25.570Z,4.45
2022-12-08T15:29:52.438Z,4.45
2022-12-08T15:32:21.510Z,2.97
2022-12-08T15:34:48.043Z,4.93
2022-12-08T15:37:23.737Z,3.67
2022-12-08T15:39:50.773Z,3.22
2022-12-08T15:42:17.332Z,3.58
2022-12-08T15:44:44.081Z,4.10
2022-12-08T15:47:15.828Z,3.78
2022-12-08T15:49:42.232Z,7.35
2022-12-08T15:52:14.896Z,3.10
2022-12-08T15:54:41.707Z,3.88
2022-12-08T15:57:53.547Z,5.35
2022-12-08T16:00:51.359Z,4.05
2022-12-08T16:09:17.841Z,4.55
2022-12-08T16:15:46.743Z,9.07
2022-12-08T16:17:18.016Z,91.53
2022-12-08T16:19:45.822Z,12.88
2022-12-08T16:22:56.399Z,6.50
2022-12-08T16:25:17.662Z,8.68
2022-12-08T16:28:17.301Z,7.18
2022-12-08T16:30:33.208Z,6.72
2022-12-08T16:32:59.546Z,7.97
2022-12-08T16:35:26.068Z,5.35
2022-12-08T16:37:52.423Z,5.20
2022-12-08T16:40:18.827Z,5.90
2022-12-08T16:42:45.160Z,6.95
2022-12-08T16:45:19.120Z,6.50
2022-12-08T16:48:09.712Z,8.52
2022-12-08T16:50:36.069Z,9.63
2022-12-08T16:53:07.746Z,7.80
2022-12-08T16:55:34.676Z,8.18
2022-12-08T16:58:01.161Z,7.93
2022-12-08T17:00:29.293Z,6.80
2022-12-08T17:02:56.313Z,6.45
2022-12-08T17:05:24.691Z,7.60
2022-12-08T17:07:53.446Z,7.57
2022-12-08T17:10:23.200Z,6.97
2022-12-08T17:12:50.523Z,8.60
2022-12-08T17:15:21.836Z,6.22
2022-12-08T17:17:48.811Z,7.55
2022-12-08T17:20:20.809Z,9.63
2022-12-08T17:22:50.555Z,8.98
2022-12-08T17:25:16.992Z,9.13
2022-12-08T17:27:43.560Z,6.93
2022-12-08T17:30:11.620Z,7.65
2022-12-08T17:32:38.662Z,5.80
2022-12-08T17:35:05.786Z,9.35
2022-12-08T17:37:32.491Z,8.68
2022-12-08T17:39:58.898Z,10.52
2022-12-08T17:42:25.254Z,8.38
2022-12-08T17:44:53.650Z,7.82
2022-12-08T17:47:20.161Z,7.28
2022-12-08T17:49:46.744Z,11.45
2022-12-08T17:52:13.136Z,12.57
2022-12-08T17:54:39.626Z,9.43
2022-12-08T17:57:06.138Z,10.63
2022-12-08T17:59:33.066Z,9.43
2022-12-08T18:01:59.675Z,9.55
2022-12-08T18:04:27.637Z,6.25
2022-12-08T18:06:54.445Z,8.75
2022-12-08T18:09:21.408Z,9.10
2022-12-08T18:11:47.854Z,8.48
2022-12-08T18:14:15.393Z,9.10
2022-12-08T18:16:45.587Z,9.35
2022-12-08T18:19:13.832Z,12.20
2022-12-08T18:21:41.671Z,10.48
2022-12-08T18:24:09.359Z,10.52
2022-12-08T18:26:36.700Z,11.90
2022-12-08T18:29:03.466Z,15.00
2022-12-08T18:31:29.878Z,11.30
2022-12-08T18:33:56.367Z,8.55
2022-12-08T18:36:25.082Z,9.35
2022-12-08T18:38:53.252Z,11.23
2022-12-08T18:41:22.363Z,10.68
2022-12-08T18:43:48.872Z,9.80
2022-12-08T18:46:15.297Z,9.25
2022-12-08T18:48:46.734Z,10.48
2022-12-08T18:51:15.897Z,9.63
2022-12-08T18:53:43.794Z,11.55
2022-12-08T18:56:30.808Z,13.95
2022-12-08T18:59:03.300Z,11.30
2022-12-08T19:01:31.354Z,9.65
2022-12-08T19:04:26.884Z,11.05
2022-12-08T19:06:45.905Z,8.95
2022-12-08T19:09:17.884Z,7.93
2022-12-08T19:11:44.348Z,9.15
2022-12-08T19:14:10.980Z,9.95
2022-12-08T19:16:37.592Z,10.55
2022-12-08T19:19:05.139Z,8.57
2022-12-08T19:21:32.453Z,9.82
2022-12-08T19:23:58.840Z,10.63
2022-12-08T19:26:27.102Z,9.52
2022-12-08T19:28:53.559Z,10.63
2022-12-08T19:31:20.166Z,11.63
2022-12-08T19:33:46.515Z,12.55
2022-12-08T19:36:16.278Z,10.80
2022-12-08T19:38:42.696Z,10.93
2022-12-08T19:41:09.767Z,14.23
2022-12-08T19:43:36.091Z,12.45
2022-12-08T19:46:02.565Z,14.13
2022-12-08T19:48:29.295Z,12.77
2022-12-08T19:50:56.229Z,11.75
2022-12-08T19:53:23.930Z,10.02
2022-12-08T19:55:50.716Z,11.85
2022-12-08T19:58:18.776Z,12.95
2022-12-08T20:00:46.380Z,15.10
2022-12-08T20:03:17.791Z,11.48
2022-12-08T20:05:46.245Z,10.32
2022-12-08T20:08:12.804Z,13.00
2022-12-08T20:10:41.968Z,13.93
2022-12-08T20:13:10.078Z,14.05
2022-12-08T20:15:36.463Z,21.60
2022-12-08T20:18:02.834Z,17.33
2022-12-08T20:20:29.184Z,14.82
2022-12-08T20:22:55.529Z,19.05
2022-12-08T20:25:22.157Z,15.40
2022-12-08T20:27:48.482Z,19.35
2022-12-08T20:30:17.240Z,17.25
2022-12-08T20:32:44.978Z,19.70
2022-12-08T20:35:11.384Z,18.73
2022-12-08T20:37:37.722Z,19.08
2022-12-08T20:40:05.637Z,17.60
2022-12-08T20:42:31.957Z,16.63
2022-12-08T20:44:58.689Z,21.52
2022-12-08T20:47:27.747Z,17.83
2022-12-08T20:49:54.795Z,21.90
2022-12-08T20:52:21.647Z,19.52
2022-12-08T20:54:48.062Z,20.75
2022-12-08T20:57:14.512Z,19.70
2022-12-08T20:59:40.977Z,18.55
2022-12-08T21:02:07.356Z,23.95
2022-12-08T21:04:34.110Z,20.45
2022-12-08T21:07:00.684Z,20.13
2022-12-08T21:09:27.439Z,22.08
2022-12-08T21:11:54.063Z,20.83
2022-12-08T21:14:20.557Z,18.85
2022-12-08T21:16:47.316Z,21.73
2022-12-08T21:19:14.015Z,23.40
2022-12-08T21:21:40.320Z,21.95
2022-12-08T21:24:07.201Z,18.85
2022-12-08T21:26:36.585Z,19.85
2022-12-08T21:29:04.246Z,23.10
2022-12-08T21:31:31.032Z,20.45
2022-12-08T21:34:02.164Z,25.15
2022-12-08T21:36:28.797Z,24.20
2022-12-08T21:38:55.336Z,20.42
2022-12-08T21:41:23.826Z,22.30
2022-12-08T21:43:50.315Z,22.23
2022-12-08T21:46:16.807Z,19.03
2022-12-08T21:48:43.733Z,20.80
2022-12-08T21:51:10.300Z,17.85
2022-12-08T21:53:36.785Z,21.58
2022-12-08T21:56:08.466Z,22.33
2022-12-08T21:58:35.045Z,22.08
2022-12-08T22:01:06.680Z,19.00
2022-12-08T22:03:33.266Z,22.27
2022-12-08T22:06:07.844Z,19.15
2022-12-08T22:08:34.520Z,18.53
2022-12-08T22:11:01.172Z,19.23
2022-12-08T22:13:27.696Z,22.52
2022-12-08T22:16:06.125Z,20.75
2022-12-08T22:18:33.944Z,22.83
2022-12-08T22:21:00.514Z,22.35
2022-12-08T22:23:28.360Z,20.00
2022-12-08T22:25:59.235Z,21.17
2022-12-08T22:28:27.118Z,23.13
2022-12-08T22:30:53.477Z,19.13
2022-12-08T22:33:19.911Z,20.80
2022-12-08T22:36:04.937Z,18.75
2022-12-08T22:38:36.270Z,18.42
2022-12-08T22:41:04.890Z,19.92
2022-12-08T22:43:31.770Z,21.73
2022-12-08T22:45:58.130Z,20.87
2022-12-08T22:48:24.792Z,19.20
2022-12-08T22:50:51.398Z,19.08
2022-12-08T22:53:17.828Z,26.85
2022-12-08T22:55:44.703Z,22.25
2022-12-08T22:58:12.060Z,22.52
2022-12-08T23:00:38.975Z,21.42
2022-12-08T23:03:06.106Z,24.73
2022-12-08T23:05:35.188Z,20.80
2022-12-08T23:08:02.395Z,21.35
2022-12-08T23:10:29.409Z,18.40
2022-12-08T23:13:00.805Z,19.38
2022-12-08T23:15:30.718Z,19.83
2022-12-08T23:17:57.401Z,20.50
2022-12-08T23:20:24.086Z,19.33
2022-12-08T23:22:50.639Z,21.40
2022-12-08T23:25:17.118Z,18.38
2022-12-08T23:27:44.164Z,18.92
2022-12-08T23:30:11.561Z,20.50
2022-12-08T23:32:38.425Z,19.45
2022-12-08T23:35:05.971Z,18.90
2022-12-08T23:37:33.050Z,17.20
2022-12-08T23:39:59.488Z,17.52
2022-12-08T23:42:25.889Z,19.08
2022-12-08T23:44:52.428Z,16.13
2022-12-08T23:47:18.860Z,16.58
2022-12-08T23:49:45.694Z,19.05
2022-12-08T23:52:13.481Z,17.15
2022-12-08T23:54:40.481Z,16.40
2022-12-08T23:57:07.376Z,18.42
2022-12-08T23:59:33.826Z,17.30
